Time;durP1;ratioP1;P1;durP2;ratioP2;P2;SDS_P1;SDS_P2;PMS_P1;PMS_P2;Temp;Humidity;BMP_temperature;BMP_pressure;BME280_temperature;BME280_humidity;BME280_pressure;Samples;Min_cycle;Max_cycle;Signal;HPM_P1;HPM_P2
2023/03/05 00:02:21;;;;;;;75.60;22.38;;;1.00;99.90;;;;;;5051512;28;20033;-84
2023/03/05 00:04:46;;;;;;;71.68;22.48;;;1.00;99.90;;;;;;5051407;28;20080;-84
2023/03/05 00:07:13;;;;;;;179.77;61.75;;;1.00;99.90;;;;;;5068498;28;20025;-84
2023/03/05 00:09:39;;;;;;;121.95;41.70;;;1.00;99.90;;;;;;5051480;28;20028;-84
2023/03/05 00:12:15;;;;;;;86.45;31.20;;;1.00;99.90;;;;;;5051926;28;20032;-85
2023/03/05 00:14:41;;;;;;;73.95;22.77;;;1.00;99.90;;;;;;5051700;28;20051;-85
2023/03/05 00:17:07;;;;;;;69.43;23.50;;;1.00;99.90;;;;;;5031789;28;20033;-85
2023/03/05 00:19:33;;;;;;;78.78;23.33;;;1.00;99.90;;;;;;5056101;28;20033;-84
2023/03/05 00:21:58;;;;;;;89.15;24.52;;;1.00;99.90;;;;;;5034648;28;20036;-85
2023/03/05 00:25:17;;;;;;;82.25;26.52;;;1.00;99.90;;;;;;5051181;28;20029;-84
2023/03/05 00:27:43;;;;;;;67.80;23.02;;;1.00;99.90;;;;;;5047501;28;20036;-84
2023/03/05 00:30:09;;;;;;;68.18;24.00;;;1.00;99.90;;;;;;5034321;28;20036;-84
2023/03/05 00:32:35;;;;;;;89.88;28.80;;;1.00;99.90;;;;;;5050630;28;20404;-84
2023/03/05 00:35:00;;;;;;;80.60;25.55;;;1.00;99.90;;;;;;5034494;28;20028;-84
2023/03/05 00:37:26;;;;;;;82.70;26.77;;;1.00;99.90;;;;;;5050890;28;20040;-84
2023/03/05 00:39:52;;;;;;;72.57;22.58;;;1.00;99.90;;;;;;5050858;28;20032;-84
2023/03/05 00:42:17;;;;;;;75.25;24.90;;;1.00;99.90;;;;;;5034657;28;20032;-84
2023/03/05 00:44:43;;;;;;;62.30;20.77;;;1.00;99.90;;;;;;5051017;28;20032;-84
2023/03/05 00:47:09;;;;;;;74.32;24.33;;;1.00;99.90;;;;;;5033950;28;20025;-84
2023/03/05 00:50:09;;;;;;;59.38;21.65;;;1.00;99.90;;;;;;5050268;28;20112;-84
2023/03/05 00:52:35;;;;;;;71.60;22.58;;;1.00;99.90;;;;;;5067438;28;20036;-84
2023/03/05 00:55:02;;;;;;;74.15;22.33;;;1.00;99.90;;;;;;5034222;28;20162;-84
2023/03/05 00:57:27;;;;;;;82.72;24.75;;;0.90;99.90;;;;;;5052420;28;20119;-84
2023/03/05 00:59:53;;;;;;;73.68;24.17;;;0.90;99.90;;;;;;5038190;28;20020;-84
2023/03/05 01:02:19;;;;;;;75.53;23.75;;;0.90;99.90;;;;;;5038375;28;20120;-84
2023/03/05 01:04:46;;;;;;;70.22;24.55;;;0.90;99.90;;;;;;5054656;28;20059;-84
2023/03/05 01:07:12;;;;;;;76.50;22.17;;;0.90;99.90;;;;;;5034801;28;20033;-84
2023/03/05 01:09:37;;;;;;;78.10;24.05;;;0.90;99.90;;;;;;5070640;28;20122;-84
2023/03/05 01:12:03;;;;;;;60.70;21.27;;;0.90;99.90;;;;;;5038148;28;20163;-85
2023/03/05 01:14:29;;;;;;;72.78;22.08;;;0.90;99.90;;;;;;5038183;28;20041;-84
2023/03/05 01:16:55;;;;;;;68.60;22.55;;;0.80;99.90;;;;;;5038477;28;20043;-84
2023/03/05 01:19:21;;;;;;;66.55;21.63;;;0.80;99.90;;;;;;5038457;28;20020;-84
2023/03/05 01:21:46;;;;;;;64.53;20.90;;;0.90;99.90;;;;;;5055173;28;20448;-84
2023/03/05 01:24:12;;;;;;;58.38;20.95;;;0.80;99.90;;;;;;5054616;28;20659;-84
2023/03/05 01:26:38;;;;;;;73.97;22.52;;;0.90;99.90;;;;;;5054329;28;20024;-84
2023/03/05 01:29:03;;;;;;;57.90;20.13;;;0.90;99.90;;;;;;5038369;28;20024;-84
2023/03/05 01:31:29;;;;;;;68.05;21.52;;;0.90;99.90;;;;;;5054794;28;20060;-84
2023/03/05 01:33:55;;;;;;;64.40;20.75;;;0.90;99.90;;;;;;5054262;28;20032;-84
2023/03/05 01:36:23;;;;;;;68.57;21.40;;;0.90;99.90;;;;;;5038174;28;20460;-84
2023/03/05 01:38:49;;;;;;;71.18;21.27;;;0.90;99.90;;;;;;5054589;28;20029;-84
2023/03/05 01:41:16;;;;;;;63.15;20.88;;;0.90;99.90;;;;;;5038266;28;20376;-84
2023/03/05 01:43:43;;;;;;;69.55;21.38;;;0.90;99.90;;;;;;5054577;28;20424;-84
2023/03/05 01:46:12;;;;;;;66.85;24.02;;;0.90;99.90;;;;;;5037848;28;20025;-84
2023/03/05 01:48:41;;;;;;;64.32;21.13;;;0.90;99.90;;;;;;5035802;28;20033;-84
2023/03/05 01:51:07;;;;;;;66.38;22.55;;;0.90;99.90;;;;;;5037358;28;20060;-84
2023/03/05 01:53:33;;;;;;;74.85;23.73;;;0.90;99.90;;;;;;5037535;28;20056;-84
2023/03/05 01:56:30;;;;;;;72.45;22.60;;;0.80;99.90;;;;;;5053895;28;20028;-85
2023/03/05 01:59:02;;;;;;;64.60;21.05;;;0.80;99.90;;;;;;5054214;28;20041;-85
2023/03/05 02:01:37;;;;;;;77.68;22.83;;;0.80;99.90;;;;;;5054493;28;20027;-84
2023/03/05 02:04:03;;;;;;;74.55;23.55;;;0.80;99.90;;;;;;5037313;28;20120;-84
2023/03/05 02:06:29;;;;;;;65.28;22.75;;;0.80;99.90;;;;;;5054144;28;20196;-84
2023/03/05 02:08:55;;;;;;;76.82;25.15;;;0.80;99.90;;;;;;5053595;28;20061;-84
2023/03/05 02:11:21;;;;;;;80.07;24.55;;;0.90;99.90;;;;;;5037321;28;20025;-84
2023/03/05 02:13:50;;;;;;;75.97;24.27;;;0.80;99.90;;;;;;5040289;28;20036;-85
2023/03/05 02:16:15;;;;;;;70.43;24.73;;;0.80;99.90;;;;;;5062486;28;20025;-84
2023/03/05 02:18:41;;;;;;;81.75;25.95;;;0.90;99.90;;;;;;5036810;28;20025;-84
2023/03/05 02:21:08;;;;;;;73.28;27.95;;;0.90;99.90;;;;;;5037459;28;20029;-84
2023/03/05 02:23:36;;;;;;;82.38;25.83;;;0.90;99.90;;;;;;5037072;28;20029;-84
2023/03/05 02:26:04;;;;;;;80.53;27.75;;;0.90;99.90;;;;;;5054037;28;20021;-84
2023/03/05 02:28:56;;;;;;;75.07;26.40;;;1.00;99.90;;;;;;5053784;28;20488;-85
2023/03/05 02:31:43;;;;;;;75.22;26.83;;;0.90;99.90;;;;;;5037215;28;20083;-84
2023/03/05 02:34:09;;;;;;;78.65;26.45;;;1.00;99.90;;;;;;5032931;28;20037;-84
2023/03/05 02:36:35;;;;;;;75.20;26.63;;;0.90;99.90;;;;;;5037022;28;20033;-84
2023/03/05 02:39:00;;;;;;;77.30;27.20;;;0.90;99.90;;;;;;5049955;28;20143;-84
2023/03/05 02:41:26;;;;;;;71.47;28.50;;;1.00;99.90;;;;;;5036953;28;20025;-84
2023/03/05 02:43:54;;;;;;;80.18;28.05;;;1.00;99.90;;;;;;5053634;28;20480;-84
2023/03/05 02:46:20;;;;;;;82.28;29.20;;;1.00;99.90;;;;;;5037204;28;20036;-84
2023/03/05 02:48:46;;;;;;;82.18;27.90;;;1.00;99.90;;;;;;5034520;28;20049;-84
2023/03/05 02:51:13;;;;;;;99.50;30.08;;;1.00;99.90;;;;;;5037262;28;20021;-84
2023/03/05 02:53:40;;;;;;;79.13;29.20;;;1.00;99.90;;;;;;5052975;28;20025;-84
2023/03/05 02:56:06;;;;;;;85.68;30.45;;;1.00;99.90;;;;;;5036534;28;20527;-84
2023/03/05 02:58:34;;;;;;;84.25;28.65;;;1.00;99.90;;;;;;5036570;28;20033;-84
2023/03/05 03:00:59;;;;;;;79.75;27.98;;;0.90;99.90;;;;;;5036881;28;20107;-84
2023/03/05 03:03:25;;;;;;;85.72;27.75;;;0.90;99.90;;;;;;5032945;28;20552;-84
2023/03/05 03:05:51;;;;;;;91.05;30.00;;;0.90;99.90;;;;;;5081950;28;20115;-84
2023/03/05 03:08:16;;;;;;;77.47;28.02;;;0.90;99.90;;;;;;5036899;28;20056;-84
2023/03/05 03:10:42;;;;;;;85.00;29.45;;;0.90;99.90;;;;;;5035926;28;20032;-84
2023/03/05 03:13:08;;;;;;;74.40;26.27;;;0.90;99.90;;;;;;5036049;28;20695;-85
2023/03/05 03:15:33;;;;;;;78.13;27.63;;;0.90;99.90;;;;;;5036261;28;20032;-84
2023/03/05 03:18:14;;;;;;;75.60;27.38;;;0.90;99.90;;;;;;5035969;28;20037;-84
2023/03/05 03:20:40;;;;;;;83.68;29.60;;;0.90;99.90;;;;;;5052008;28;20049;-84
2023/03/05 03:23:06;;;;;;;83.28;28.38;;;0.90;99.90;;;;;;5035977;28;20039;-84
2023/03/05 03:25:32;;;;;;;83.10;28.40;;;0.90;99.90;;;;;;5035810;28;20032;-85
2023/03/05 03:27:57;;;;;;;87.10;29.17;;;0.90;99.90;;;;;;5036021;28;20109;-84
2023/03/05 03:30:23;;;;;;;81.78;29.13;;;1.00;99.90;;;;;;5035986;28;20112;-85
2023/03/05 03:32:51;;;;;;;82.03;29.30;;;1.00;99.90;;;;;;5035903;28;20226;-84
2023/03/05 03:35:17;;;;;;;83.20;29.83;;;1.00;99.90;;;;;;5032727;28;20063;-84
2023/03/05 03:37:43;;;;;;;78.32;28.55;;;1.00;99.90;;;;;;5035724;28;20056;-84
2023/03/05 03:40:10;;;;;;;69.85;28.63;;;1.00;99.90;;;;;;5035838;28;20052;-84
2023/03/05 03:42:36;;;;;;;77.38;29.45;;;1.10;99.90;;;;;;5035614;28;20040;-84
2023/03/05 03:45:02;;;;;;;77.18;29.67;;;1.10;99.90;;;;;;5035872;28;20024;-84
2023/03/05 03:47:29;;;;;;;77.53;28.73;;;1.10;99.90;;;;;;5035709;28;20033;-84
2023/03/05 03:49:55;;;;;;;76.05;28.38;;;1.10;99.90;;;;;;5052274;28;20029;-84
2023/03/05 03:52:21;;;;;;;71.75;29.10;;;1.00;99.90;;;;;;5035395;28;20033;-85
2023/03/05 03:54:49;;;;;;;77.53;29.88;;;1.00;99.90;;;;;;5035232;28;20033;-84
2023/03/05 03:57:15;;;;;;;71.78;29.50;;;1.00;99.90;;;;;;5051567;28;20037;-84
2023/03/05 03:59:40;;;;;;;75.18;28.90;;;1.00;99.90;;;;;;5068721;28;20486;-84
2023/03/05 04:02:06;;;;;;;80.28;29.58;;;1.00;99.90;;;;;;5035185;28;20039;-84
2023/03/05 04:04:32;;;;;;;83.80;29.73;;;1.00;99.90;;;;;;5051717;28;20025;-84
2023/03/05 04:06:58;;;;;;;67.93;29.58;;;1.00;99.90;;;;;;5051868;28;20021;-84
2023/03/05 04:09:24;;;;;;;80.13;29.08;;;0.90;99.90;;;;;;5034881;28;20025;-84
2023/03/05 04:11:49;;;;;;;74.25;30.50;;;1.00;99.90;;;;;;5035199;28;20032;-84
2023/03/05 04:14:15;;;;;;;87.80;31.55;;;0.90;99.90;;;;;;5034972;28;20021;-84
2023/03/05 04:16:41;;;;;;;80.68;29.23;;;1.00;99.90;;;;;;5051311;28;20033;-84
2023/03/05 04:19:06;;;;;;;92.43;31.75;;;1.00;99.90;;;;;;5034903;28;20020;-84
2023/03/05 04:21:32;;;;;;;89.18;31.17;;;1.00;99.90;;;;;;5051333;28;20036;-84
2023/03/05 04:23:58;;;;;;;88.10;31.70;;;1.00;99.90;;;;;;5034762;28;20461;-84
2023/03/05 04:26:23;;;;;;;77.82;31.40;;;1.00;99.90;;;;;;5051529;28;20071;-84
2023/03/05 04:28:49;;;;;;;79.18;30.45;;;0.90;99.90;;;;;;5035027;28;20072;-84
2023/03/05 04:31:40;;;;;;;86.85;31.48;;;0.90;99.90;;;;;;5030636;28;20048;-84
2023/03/05 04:34:05;;;;;;;78.53;29.83;;;0.90;99.90;;;;;;5067620;28;20060;-84
2023/03/05 04:36:31;;;;;;;79.95;29.33;;;0.90;99.90;;;;;;5035051;28;20313;-84
2023/03/05 04:38:57;;;;;;;76.22;30.05;;;0.90;99.90;;;;;;5034933;28;20032;-84
2023/03/05 04:41:22;;;;;;;79.43;28.42;;;0.80;99.90;;;;;;5052924;28;20705;-84
2023/03/05 04:43:48;;;;;;;83.82;28.08;;;0.80;99.90;;;;;;5034105;28;20028;-84
2023/03/05 04:46:14;;;;;;;87.63;29.77;;;0.80;99.90;;;;;;5051376;28;20032;-83
2023/03/05 04:48:39;;;;;;;78.18;27.92;;;0.80;99.90;;;;;;5034438;28;20067;-84
2023/03/05 04:51:05;;;;;;;67.00;27.50;;;0.80;99.90;;;;;;5062844;28;20068;-85
2023/03/05 04:53:31;;;;;;;77.95;27.48;;;0.80;99.90;;;;;;5034334;28;20033;-84
2023/03/05 04:56:00;;;;;;;78.82;26.80;;;0.80;99.90;;;;;;5030870;28;20025;-84
2023/03/05 04:58:26;;;;;;;70.45;27.00;;;0.70;99.90;;;;;;5034640;28;20167;-84
2023/03/05 05:01:25;;;;;;;68.85;27.40;;;0.70;99.90;;;;;;5034691;28;20036;-84
2023/03/05 05:03:51;;;;;;;72.22;26.90;;;0.70;99.90;;;;;;5031004;28;20469;-84
2023/03/05 05:06:17;;;;;;;74.65;27.05;;;0.60;99.90;;;;;;5033986;28;20017;-84
2023/03/05 05:12:30;;;;;;;75.18;26.75;;;0.70;99.90;;;;;;5050446;28;20040;-84
2023/03/05 05:14:57;;;;;;;77.85;28.55;;;0.60;99.90;;;;;;5033862;28;20500;-84
2023/03/05 05:17:22;;;;;;;72.13;27.08;;;0.60;99.90;;;;;;5050685;28;20056;-84
2023/03/05 05:19:48;;;;;;;84.47;28.25;;;0.70;99.90;;;;;;5033997;28;20029;-84
2023/03/05 05:22:14;;;;;;;76.15;29.60;;;0.70;99.90;;;;;;5034294;28;20442;-84
2023/03/05 05:24:40;;;;;;;76.88;30.67;;;0.60;99.90;;;;;;5033465;28;20029;-84
2023/03/05 05:27:05;;;;;;;79.78;29.27;;;0.60;99.90;;;;;;5030221;28;20116;-84
2023/03/05 05:29:31;;;;;;;91.15;29.90;;;0.60;99.90;;;;;;5050536;28;20037;-84
2023/03/05 05:31:56;;;;;;;85.97;30.48;;;0.60;99.90;;;;;;5033965;28;20025;-84
2023/03/05 05:34:59;;;;;;;84.55;30.08;;;0.60;99.90;;;;;;5050377;28;20060;-85
2023/03/05 05:37:26;;;;;;;81.57;28.52;;;0.60;99.90;;;;;;5033500;28;20123;-84
2023/03/05 05:39:52;;;;;;;72.03;28.23;;;0.60;99.90;;;;;;5050542;28;20472;-84
2023/03/05 05:42:22;;;;;;;74.18;26.25;;;0.60;99.90;;;;;;5033753;28;20476;-84
2023/03/05 05:44:48;;;;;;;74.03;26.90;;;0.60;99.90;;;;;;5054090;28;20507;-84
2023/03/05 05:47:15;;;;;;;71.10;26.98;;;0.60;99.90;;;;;;5035888;28;20029;-84
2023/03/05 05:49:41;;;;;;;69.28;26.95;;;0.60;99.90;;;;;;5054161;28;20385;-84
2023/03/05 05:52:07;;;;;;;68.07;26.50;;;0.60;99.90;;;;;;5036176;28;20040;-84
2023/03/05 05:54:32;;;;;;;69.05;26.40;;;0.60;99.90;;;;;;5054415;28;20057;-84
2023/03/05 05:56:58;;;;;;;81.55;29.50;;;0.60;99.90;;;;;;5054157;28;20476;-84
2023/03/05 05:59:25;;;;;;;77.60;29.75;;;0.60;99.90;;;;;;5037033;28;20029;-83
2023/03/05 06:01:50;;;;;;;72.18;28.55;;;0.60;99.90;;;;;;5032384;28;20025;-86
2023/03/05 06:04:16;;;;;;;84.85;30.73;;;0.70;99.90;;;;;;5054776;28;20354;-86
2023/03/05 06:06:42;;;;;;;82.18;30.25;;;0.60;99.90;;;;;;5055769;28;20060;-86
2023/03/05 06:09:08;;;;;;;79.45;29.35;;;0.60;99.90;;;;;;5037914;28;20510;-86
2023/03/05 06:11:33;;;;;;;80.38;31.77;;;0.70;99.90;;;;;;5054563;28;20039;-86
2023/03/05 06:14:01;;;;;;;94.95;32.05;;;0.60;99.90;;;;;;5037321;28;20037;-86
2023/03/05 06:16:27;;;;;;;84.35;29.65;;;0.60;99.90;;;;;;5053896;28;20480;-86
2023/03/05 06:18:53;;;;;;;86.53;30.02;;;0.60;99.90;;;;;;5037795;28;20036;-86
2023/03/05 06:21:20;;;;;;;85.63;30.13;;;0.60;99.90;;;;;;5052640;28;20029;-86
2023/03/05 06:23:47;;;;;;;78.93;29.75;;;0.60;99.90;;;;;;5038372;28;20025;-86
2023/03/05 06:26:18;;;;;;;78.22;29.80;;;0.60;99.90;;;;;;5036602;28;20021;-87
2023/03/05 06:28:44;;;;;;;;;;;0.60;99.90;;;;;;5037809;28;20463;-86
2023/03/05 06:31:21;;;;;;;85.88;29.85;;;0.60;99.90;;;;;;5054562;28;19995;-86
2023/03/05 06:34:05;;;;;;;82.45;29.08;;;0.50;99.90;;;;;;5037673;28;20025;-86
2023/03/05 06:36:31;;;;;;;110.85;33.03;;;0.50;99.90;;;;;;5052157;28;20044;-86
2023/03/05 06:38:57;;;;;;;75.28;28.73;;;0.50;99.90;;;;;;5037141;28;20033;-86
2023/03/05 06:41:28;;;;;;;74.10;28.92;;;0.50;99.90;;;;;;5037334;28;20020;-86
2023/03/05 06:43:54;;;;;;;83.32;27.60;;;0.50;99.90;;;;;;5035543;28;20046;-86
2023/03/05 06:46:32;;;;;;;85.53;30.55;;;0.50;99.90;;;;;;5037289;28;20169;-86
2023/03/05 06:48:59;;;;;;;75.60;28.80;;;0.60;99.90;;;;;;5037426;28;20392;-86
2023/03/05 06:51:28;;;;;;;78.13;27.83;;;0.60;99.90;;;;;;5037189;28;20025;-86
2023/03/05 06:53:55;;;;;;;80.72;27.25;;;0.60;99.90;;;;;;5036636;28;20029;-86
2023/03/05 06:56:21;;;;;;;75.47;27.17;;;0.70;99.90;;;;;;5036794;28;20029;-87
2023/03/05 06:58:49;;;;;;;76.10;27.55;;;0.70;99.90;;;;;;5037483;28;20059;-86
2023/03/05 07:01:15;;;;;;;69.03;25.75;;;0.70;99.90;;;;;;5032614;28;20032;-85
2023/03/05 07:03:41;;;;;;;80.90;27.08;;;0.70;99.90;;;;;;5030491;28;20120;-85
2023/03/05 07:06:11;;;;;;;71.22;27.35;;;0.70;99.90;;;;;;5033570;28;20025;-86
2023/03/05 07:08:37;;;;;;;77.55;26.67;;;0.70;99.90;;;;;;5051137;28;20064;-87
2023/03/05 07:11:11;;;;;;;81.07;27.80;;;0.70;99.90;;;;;;5033764;28;20033;-87
2023/03/05 07:13:36;;;;;;;72.53;29.42;;;0.80;99.90;;;;;;5035478;28;20025;-86
2023/03/05 07:16:07;;;;;;;78.40;28.85;;;0.80;99.90;;;;;;5036868;28;20052;-86
2023/03/05 07:18:33;;;;;;;75.65;27.75;;;0.80;99.90;;;;;;5033086;28;20180;-86
2023/03/05 07:21:04;;;;;;;74.63;27.38;;;0.80;99.90;;;;;;5051933;28;20067;-85
2023/03/05 07:23:31;;;;;;;87.43;30.88;;;0.90;99.90;;;;;;5046875;28;20029;-85
2023/03/05 07:26:00;;;;;;;77.30;29.67;;;0.90;99.90;;;;;;5032730;28;20068;-86
2023/03/05 07:28:26;;;;;;;84.75;29.42;;;0.90;99.90;;;;;;5027300;28;20033;-86
2023/03/05 07:31:05;;;;;;;74.75;28.65;;;0.90;99.90;;;;;;5031468;28;20476;-86
2023/03/05 07:33:32;;;;;;;76.72;29.52;;;0.90;99.90;;;;;;5047340;28;20036;-86
2023/03/05 07:35:58;;;;;;;77.55;30.08;;;1.00;99.90;;;;;;5037702;28;20532;-86
2023/03/05 07:38:23;;;;;;;80.05;29.38;;;1.00;99.90;;;;;;5041176;28;20170;-86
2023/03/05 07:40:49;;;;;;;89.05;30.50;;;1.00;99.90;;;;;;5042136;28;20110;-86
2023/03/05 07:43:15;;;;;;;73.45;29.80;;;1.00;99.90;;;;;;5049415;28;20041;-86
2023/03/05 07:45:42;;;;;;;96.05;31.30;;;1.10;99.90;;;;;;5047389;28;20041;-86
2023/03/05 07:48:13;;;;;;;82.88;31.20;;;1.10;99.90;;;;;;5052064;28;20025;-86
2023/03/05 07:50:39;;;;;;;79.05;30.85;;;1.20;99.90;;;;;;5039176;28;20037;-86
2023/03/05 07:53:20;;;;;;;75.38;29.95;;;1.20;99.90;;;;;;5077724;28;20043;-85
2023/03/05 07:55:46;;;;;;;86.82;31.45;;;1.30;99.90;;;;;;5050818;28;20020;-86
2023/03/05 07:58:24;;;;;;;76.97;32.50;;;1.30;99.90;;;;;;5056045;28;20060;-86
2023/03/05 08:00:50;;;;;;;80.70;32.90;;;1.30;99.90;;;;;;5041424;28;20033;-86
2023/03/05 08:03:16;;;;;;;91.40;32.78;;;1.40;99.90;;;;;;5046127;28;20074;-86
2023/03/05 08:05:43;;;;;;;79.97;30.83;;;1.50;99.90;;;;;;5047586;28;20028;-86
2023/03/05 08:08:09;;;;;;;76.30;29.30;;;1.50;99.90;;;;;;5033144;28;20029;-86
2023/03/05 08:10:36;;;;;;;79.55;30.50;;;1.50;99.90;;;;;;5042208;28;20029;-86
2023/03/05 08:13:02;;;;;;;73.03;27.85;;;1.50;99.90;;;;;;5053310;28;20032;-86
2023/03/05 08:15:30;;;;;;;76.53;31.25;;;1.50;99.90;;;;;;5056495;28;20025;-86
2023/03/05 08:17:56;;;;;;;88.35;28.92;;;1.50;99.90;;;;;;5031428;28;20112;-87
2023/03/05 08:20:23;;;;;;;79.03;31.02;;;1.40;99.90;;;;;;5033188;28;20392;-85
2023/03/05 08:22:49;;;;;;;72.63;27.00;;;1.40;99.90;;;;;;5036506;28;20021;-86
2023/03/05 08:25:14;;;;;;;68.30;27.40;;;1.50;99.90;;;;;;5034747;28;20350;-86
2023/03/05 08:27:45;;;;;;;68.97;27.77;;;1.60;99.90;;;;;;5044860;28;20469;-86
2023/03/05 08:30:14;;;;;;;70.80;27.95;;;1.60;99.90;;;;;;5032122;28;20029;-86
2023/03/05 08:32:40;;;;;;;69.40;27.98;;;1.60;99.90;;;;;;5062023;28;20047;-86
2023/03/05 08:35:08;;;;;;;70.30;26.00;;;1.70;99.90;;;;;;5061235;28;20084;-86
2023/03/05 08:37:34;;;;;;;58.97;24.38;;;1.80;99.90;;;;;;5061629;28;20045;-86
2023/03/05 08:39:59;;;;;;;62.95;24.35;;;1.80;99.90;;;;;;5035905;28;20380;-86
2023/03/05 08:42:25;;;;;;;61.80;24.30;;;1.80;99.90;;;;;;5032444;28;20022;-86
2023/03/05 08:44:51;;;;;;;63.10;25.20;;;1.80;99.90;;;;;;5052092;28;20032;-86
2023/03/05 08:47:19;;;;;;;51.75;23.60;;;1.80;99.90;;;;;;5041626;28;20397;-86
2023/03/05 08:49:45;;;;;;;56.08;24.50;;;1.70;99.90;;;;;;5045426;28;20040;-86
2023/03/05 08:52:11;;;;;;;59.95;24.70;;;1.80;99.90;;;;;;5031788;28;20059;-86
2023/03/05 08:54:37;;;;;;;56.30;24.42;;;1.80;99.90;;;;;;5032711;28;20029;-86
2023/03/05 08:57:03;;;;;;;64.38;25.95;;;1.90;99.90;;;;;;5035818;28;20384;-86
2023/03/05 08:59:29;;;;;;;67.47;27.63;;;1.90;99.90;;;;;;5034790;28;20017;-86
2023/03/05 09:01:59;;;;;;;66.72;25.92;;;2.00;99.90;;;;;;5047013;28;20370;-87
2023/03/05 09:04:31;;;;;;;68.53;25.63;;;2.00;99.90;;;;;;5034247;28;20048;-86
2023/03/05 09:06:57;;;;;;;65.45;26.90;;;1.90;99.90;;;;;;5032034;28;20366;-86
2023/03/05 09:09:23;;;;;;;63.47;26.88;;;1.90;99.90;;;;;;5043943;28;20054;-86
2023/03/05 09:11:50;;;;;;;62.30;25.30;;;1.90;99.90;;;;;;5041800;28;20108;-86
2023/03/05 09:14:17;;;;;;;66.72;24.92;;;1.90;99.90;;;;;;5051347;28;20036;-86
2023/03/05 09:16:42;;;;;;;61.08;25.23;;;2.00;99.90;;;;;;5034593;28;20054;-86
2023/03/05 09:19:09;;;;;;;59.55;25.25;;;2.00;99.90;;;;;;5054621;28;20493;-85
2023/03/05 09:21:35;;;;;;;63.72;25.35;;;2.30;99.90;;;;;;5049818;28;20052;-85
2023/03/05 09:24:01;;;;;;;54.65;23.33;;;2.40;99.90;;;;;;5038853;28;20025;-86
2023/03/05 09:26:27;;;;;;;53.88;23.90;;;2.60;99.90;;;;;;5054723;28;20384;-86
2023/03/05 09:28:53;;;;;;;62.63;24.33;;;2.70;99.90;;;;;;5055824;28;20025;-85
2023/03/05 09:31:18;;;;;;;53.70;23.27;;;2.80;99.90;;;;;;5038815;28;20055;-86
2023/03/05 09:33:46;;;;;;;53.40;22.75;;;2.80;99.90;;;;;;5055262;28;20029;-86
2023/03/05 09:36:25;;;;;;;42.65;20.15;;;2.70;99.90;;;;;;5055144;28;20036;-86
2023/03/05 09:38:52;;;;;;;41.53;19.98;;;2.80;99.90;;;;;;5071906;28;20052;-86
2023/03/05 09:41:43;;;;;;;47.72;18.55;;;2.90;99.90;;;;;;5054794;28;20528;-85
2023/03/05 09:44:25;;;;;;;36.22;16.75;;;2.90;99.90;;;;;;5069375;28;20028;-86
2023/03/05 09:47:33;;;;;;;41.05;16.45;;;3.00;99.90;;;;;;5046885;28;20040;-86
2023/03/05 09:50:12;;;;;;;39.20;15.98;;;3.20;99.90;;;;;;5045790;28;20626;-86
2023/03/05 09:53:10;;;;;;;45.65;19.50;;;3.30;99.90;;;;;;5042035;28;20500;-86
2023/03/05 09:55:41;;;;;;;58.75;20.65;;;3.20;99.90;;;;;;5052403;28;20030;-86
2023/03/05 09:58:26;;;;;;;43.38;16.60;;;3.20;99.90;;;;;;5057711;28;20151;-86
2023/03/05 10:00:59;;;;;;;34.53;14.50;;;3.30;99.90;;;;;;5048363;28;20040;-86
2023/03/05 10:04:02;;;;;;;40.00;14.98;;;3.40;99.90;;;;;;5058331;28;20033;-86
2023/03/05 10:06:33;;;;;;;37.33;17.45;;;3.50;99.90;;;;;;5050454;28;20024;-86
2023/03/05 10:09:34;;;;;;;39.05;16.10;;;3.50;99.90;;;;;;5046515;28;20124;-86
2023/03/05 10:12:13;;;;;;;41.00;16.67;;;3.70;99.90;;;;;;5048647;28;20040;-87
2023/03/05 10:14:41;;;;;;;37.22;14.80;;;3.50;99.90;;;;;;5044695;28;20021;-86
2023/03/05 10:17:43;;;;;;;51.42;17.77;;;3.60;99.90;;;;;;5040837;28;20047;-87
2023/03/05 10:20:27;;;;;;;43.38;16.77;;;3.50;99.90;;;;;;5043841;28;20447;-86
2023/03/05 10:23:24;;;;;;;61.05;26.38;;;3.70;99.90;;;;;;5054685;28;20045;-86
2023/03/05 10:26:13;;;;;;;39.03;18.00;;;3.40;99.90;;;;;;5042883;28;20115;-86
2023/03/05 10:28:51;;;;;;;28.38;13.10;;;3.40;99.90;;;;;;5048231;28;20037;-86
2023/03/05 10:31:34;;;;;;;39.17;17.77;;;3.50;99.90;;;;;;5071570;28;20032;-85
2023/03/05 10:34:04;;;;;;;31.88;16.05;;;3.70;99.90;;;;;;5066304;28;20028;-86
2023/03/05 10:36:47;;;;;;;36.50;15.25;;;3.80;99.90;;;;;;5038663;28;20047;-86
2023/03/05 10:39:30;;;;;;;43.28;17.00;;;3.70;99.90;;;;;;5046522;28;20040;-86
2023/03/05 10:42:31;;;;;;;26.65;12.98;;;4.00;99.90;;;;;;5047477;28;20115;-85
2023/03/05 10:44:59;;;;;;;33.05;16.25;;;4.00;99.90;;;;;;5030054;28;20489;-85
2023/03/05 10:47:52;;;;;;;36.55;13.98;;;3.90;99.90;;;;;;5046056;28;20115;-86
2023/03/05 10:50:24;;;;;;;46.40;19.27;;;3.70;99.90;;;;;;5062847;28;20067;-86
2023/03/05 10:53:04;;;;;;;34.15;16.30;;;3.70;99.90;;;;;;5039170;28;20037;-86
2023/03/05 10:55:31;;;;;;;58.03;19.88;;;3.70;99.90;;;;;;5062033;28;20037;-86
2023/03/05 10:57:56;;;;;;;37.63;14.27;;;3.80;99.90;;;;;;5033979;28;20044;-86
2023/03/05 11:00:27;;;;;;;35.92;13.70;;;4.00;99.90;;;;;;5040650;28;20017;-85
2023/03/05 11:03:02;;;;;;;33.80;13.93;;;4.10;99.90;;;;;;5053651;28;20028;-86
2023/03/05 11:05:37;;;;;;;31.80;12.85;;;4.40;99.90;;;;;;5049369;28;20108;-86
2023/03/05 11:08:26;;;;;;;27.85;10.48;;;4.70;99.90;;;;;;5038035;28;20056;-86
2023/03/05 11:11:03;;;;;;;30.10;13.82;;;4.50;99.90;;;;;;5040335;28;20062;-86
2023/03/05 11:13:31;;;;;;;23.80;10.63;;;4.50;99.90;;;;;;5054037;28;20040;-86
2023/03/05 11:16:03;;;;;;;29.38;12.88;;;4.40;99.90;;;;;;5046804;28;20024;-86
2023/03/05 11:18:36;;;;;;;46.00;12.30;;;4.60;99.90;;;;;;5038911;28;20041;-86
2023/03/05 11:21:26;;;;;;;24.25;11.02;;;4.50;99.90;;;;;;5041242;28;20057;-86
2023/03/05 11:24:15;;;;;;;40.40;12.43;;;4.40;99.90;;;;;;5036808;28;20055;-86
2023/03/05 11:26:50;;;;;;;29.40;11.43;;;4.30;99.90;;;;;;5036629;28;20041;-86
2023/03/05 11:29:26;;;;;;;42.00;10.20;;;4.50;99.90;;;;;;5036416;28;20036;-85
2023/03/05 11:31:53;;;;;;;24.50;10.40;;;4.40;99.90;;;;;;5045408;28;20033;-86
2023/03/05 11:34:18;;;;;;;32.97;11.50;;;4.20;99.90;;;;;;5052719;28;20029;-86
2023/03/05 11:36:54;;;;;;;32.33;10.40;;;4.10;99.90;;;;;;5053044;28;20032;-86
2023/03/05 11:39:22;;;;;;;24.25;8.63;;;3.90;99.90;;;;;;5036411;28;20029;-86
2023/03/05 11:41:59;;;;;;;38.08;10.63;;;4.00;99.90;;;;;;5086439;28;20464;-85
2023/03/05 11:44:33;;;;;;;25.10;10.48;;;4.00;99.90;;;;;;5035878;28;20021;-85
2023/03/05 11:47:38;;;;;;;24.27;8.20;;;3.90;99.90;;;;;;5036113;28;20028;-86
2023/03/05 11:50:14;;;;;;;27.80;10.63;;;3.70;99.90;;;;;;5063166;28;20199;-85
2023/03/05 11:52:54;;;;;;;109.50;36.75;;;3.50;99.90;;;;;;5085805;28;20506;-86
2023/03/05 11:55:20;;;;;;;28.95;11.65;;;3.30;99.90;;;;;;5052757;28;20768;-86
2023/03/05 11:57:49;;;;;;;26.70;13.20;;;3.30;99.90;;;;;;5035625;28;20037;-86
2023/03/05 12:00:20;;;;;;;29.20;13.10;;;3.20;99.90;;;;;;5035503;28;20033;-86
2023/03/05 12:02:51;;;;;;;39.72;11.90;;;3.10;99.90;;;;;;5046033;28;20031;-86
2023/03/05 12:05:17;;;;;;;32.83;10.95;;;3.00;99.90;;;;;;5052001;28;20112;-86
2023/03/05 12:07:49;;;;;;;25.23;9.65;;;3.00;99.90;;;;;;5068430;28;20106;-86
2023/03/05 12:10:21;;;;;;;22.70;10.30;;;3.00;99.90;;;;;;5035484;28;20468;-85
2023/03/05 12:13:06;;;;;;;26.80;9.60;;;3.00;99.90;;;;;;5050014;28;20033;-86
2023/03/05 12:15:45;;;;;;;26.60;10.57;;;3.20;99.90;;;;;;5066540;28;20033;-85
2023/03/05 12:18:58;;;;;;;22.80;9.52;;;3.30;99.90;;;;;;5035475;28;20507;-86
2023/03/05 12:21:42;;;;;;;33.78;12.07;;;3.50;99.90;;;;;;5041037;28;20103;-85
2023/03/05 12:24:23;;;;;;;23.25;9.25;;;3.60;99.90;;;;;;5050526;28;20035;-86
2023/03/05 12:26:51;;;;;;;25.52;8.50;;;3.50;99.90;;;;;;5076977;28;20423;-86
2023/03/05 12:29:46;;;;;;;33.65;9.85;;;3.50;99.90;;;;;;5068548;28;20120;-86
2023/03/05 12:32:21;;;;;;;21.20;8.23;;;3.50;99.90;;;;;;5086135;28;20819;-86
2023/03/05 12:34:59;;;;;;;25.23;9.18;;;3.30;99.90;;;;;;5068236;28;20111;-86
2023/03/05 12:37:58;;;;;;;25.40;9.25;;;3.20;99.90;;;;;;5051394;28;20033;-85
2023/03/05 12:40:26;;;;;;;29.00;9.18;;;3.20;99.90;;;;;;5030093;28;20051;-85
2023/03/05 12:43:25;;;;;;;28.40;10.85;;;3.10;99.90;;;;;;5052114;28;20017;-86
2023/03/05 12:45:51;;;;;;;22.58;9.35;;;3.10;99.90;;;;;;5035142;28;20048;-86
2023/03/05 12:48:17;;;;;;;24.52;8.68;;;3.10;99.90;;;;;;5052383;28;20036;-86
2023/03/05 12:50:43;;;;;;;27.42;9.38;;;3.10;99.90;;;;;;5035154;28;20033;-86
2023/03/05 12:57:14;;;;;;;31.70;10.35;;;3.10;99.90;;;;;;5050541;28;20376;-86
2023/03/05 12:59:48;;;;;;;17.75;7.95;;;3.10;99.90;;;;;;5054730;28;20086;-86
2023/03/05 13:02:24;;;;;;;22.75;7.05;;;3.20;99.90;;;;;;5079846;28;20025;-86
2023/03/05 13:04:56;;;;;;;20.55;6.78;;;3.20;99.90;;;;;;5037315;28;20032;-85